Latest Coastal Weather Observations for Cape Byron

IDN60701

Issued at 3:42 pm EDT Thursday 25 February 2021 (issued every 10 minutes, with the page automatically refreshed every 10 minutes)

About coastal observations | Map of coastal stations | Coastal observations for NSW | Marine services | Other Formats
Station Details ID: 058216 Name: CAPE BYRON AWS Lat: -28.64 Lon: 153.64 Height: 95.0 m
Data from the previous 72 hours. | See also: Recent months at Cape Byron
Date/Time
EDT
Wind Sea
Height
m
Swell Vis
km
Cloud Weather Temp
°C
Press
MSL
hPa
Rain since
9am
mm
Dir  Spd
kts
Gust
kts
Height
m
Period
s
Dir
25/03:30pm NE 17 21 - - - - - - - 27.4 1011.3 0.0
25/03:00pm NE 17 20 - - - - - - - 27.2 1011.5 0.0
25/02:30pm NE 16 21 - - - - - - - 27.7 1011.8 0.0
25/02:00pm NE 14 17 - - - - - - - 27.7 1012.3 0.0
25/01:30pm NE 13 16 - - - - - - - 28.0 1012.8 0.0
25/01:00pm NE 13 16 - - - - - - - 28.7 1012.9 0.0
25/12:30pm NE 13 16 - - - - - - - 29.1 1013.2 0.0
25/12:00pm NE 13 16 - - - - - - - 27.7 1013.6 0.0
25/11:30am ENE 11 14 - - - - - - - 27.9 1013.9 0.0
25/11:00am ENE 11 14 - - - - - - - 28.0 1014.0 0.0
25/10:30am ENE 11 15 - - - - - - - 27.7 1014.3 0.0
25/10:00am ENE 9 13 - - - - - - - 26.7 1014.2 0.0
25/09:30am E 10 13 - - - - - - - 26.5 1014.4 0.0
25/09:00am E 9 13 - - - - - - - 25.7 1014.1 0.2
25/08:30am E 10 16 - - - - - - - 25.1 1013.9 0.2
25/08:00am E 7 11 - - - - - - - 24.7 1013.7 0.2
25/07:30am SE 6 10 - - - - - - - 24.1 1013.7 0.2
25/07:00am E 6 10 - - - - - - - 23.8 1013.5 0.2
25/06:30am E 7 13 - - - - - - - 23.6 1013.3 0.2
25/06:00am E 8 11 - - - - - - - 23.7 1013.1 0.2
25/05:30am E 9 13 - - - - - - - 23.8 1013.1 0.2
25/05:00am E 9 13 - - - - - - - 23.8 1013.1 0.2
25/04:30am E 7 12 - - - - - - - 24.0 1013.0 0.2
25/04:00am E 8 13 - - - - - - - 23.7 1013.2 0.2
25/03:30am E 9 14 - - - - - - - 23.9 1013.3 0.2
25/03:00am ENE 9 14 - - - - - - - 23.8 1013.4 0.2
25/02:30am E 10 15 - - - - - - - 23.8 1013.8 0.2
25/02:00am ENE 11 17 - - - - - - - 23.9 1014.0 0.2
25/01:30am ENE 11 16 - - - - - - - 23.8 1014.1 0.2
25/01:00am ENE 11 16 - - - - - - - 23.9 1014.5 0.2
25/12:30am ENE 10 15 - - - - - - - 24.0 1015.0 0.2
25/12:00am ENE 10 15 - - - - - - - 23.9 1015.3 0.2
 
Date/Time
EDT
Wind Sea
Height
m
Swell Vis
km
Cloud Weather Temp
°C
Press
MSL
hPa
Rain since
9am
mm
Dir  Spd
kts
Gust
kts
Height
m
Period
s
Dir
24/11:30pm ENE 13 20 - - - - - - - 24.0 1015.1 0.2
24/11:00pm ENE 11 16 - - - - - - - 24.2 1015.0 0.2
24/10:30pm E 11 17 - - - - - - - 24.1 1014.8 0.2
24/10:00pm E 12 19 - - - - - - - 24.1 1014.5 0.2
24/09:30pm E 11 17 - - - - - - - 24.3 1014.3 0.2
24/09:00pm ENE 12 17 - - - - - - - 24.3 1014.5 0.2
24/08:30pm E 11 21 - - - - - - - 24.4 1014.4 0.2
24/08:00pm E 10 15 - - - - - - - 24.5 1014.2 0.2
24/07:30pm E 11 16 - - - - - - - 24.4 1013.3 0.2
24/07:00pm E 11 16 - - - - - - - 24.5 1013.3 0.2
24/06:30pm E 10 16 - - - - - - - 25.1 1013.3 0.2
24/06:00pm E 11 16 - - - - - - - 25.3 1013.1 0.2
24/05:30pm E 11 17 - - - - - - - 25.1 1013.2 0.2
24/05:00pm E 12 18 - - - - - - - 24.8 1013.2 0.2
24/04:30pm E 12 16 - - - - - - - 25.0 1013.1 0.2
24/04:00pm E 9 13 - - - - - - - 24.7 1013.5 0.2
24/03:30pm NE 15 19 - - - - - - - 24.8 1013.4 0.2
24/03:00pm NE 17 20 - - - - - - - 25.8 1013.9 0.2
24/02:30pm E 8 13 - - - - - - - 26.8 1014.2 0.2
24/02:00pm ENE 9 14 - - - - - - - 27.6 1014.3 0.2
24/01:30pm SE 11 15 - - - - - - - 26.5 1014.6 0.2
24/01:00pm SE 10 15 - - - - - - - 26.2 1014.9 0.2
24/12:30pm SSE 9 11 - - - - - - - 25.9 1015.1 0.2
24/12:00pm SE 11 13 - - - - - - Recent precip. 26.6 1015.1 0.2
24/11:30am ESE 7 9 - - - - - - - 27.0 1015.3 0.2
24/11:00am ESE 3 5 - - - - - - - 26.5 1015.6 0.0
24/10:30am SSW 4 5 - - - - - - - 25.5 1015.7 0.0
24/10:00am SSW 7 7 - - - - - - - 24.4 1015.4 0.0
24/09:30am SW 6 8 - - - - - - - 23.6 1015.2 0.0
24/09:00am SSW 7 9 - - - - - - - 22.7 1014.8 7.4
24/08:30am SSW 5 7 - - - - - - - 22.4 1014.6 7.4
24/08:00am SW 4 6 - - - - - - - 22.1 1014.5 7.4
24/07:30am E 5 8 - - - - - - - 21.9 1014.4 7.4
24/07:00am S 6 8 - - - - - - - 21.5 1013.9 6.6
24/06:30am SW 7 8 - - - - - - - 21.4 1013.4 6.6
24/06:00am WSW 8 9 - - - - - - - 21.4 1013.3 6.6
24/05:30am SSW 8 9 - - - - - - - 21.2 1012.8 6.6
24/05:00am SSW 6 7 - - - - - - - 21.6 1012.9 6.6
24/04:30am SW 5 6 - - - - - - - 21.9 1012.6 6.6
24/04:00am CALM 0 0 - - - - - - - 22.6 1012.3 6.6
24/03:30am CALM 0 2 - - - - - - - 22.5 1012.2 6.6
24/03:00am SE 4 7 - - - - - - - 22.6 1012.5 6.6
24/02:30am E 5 7 - - - - - - - 22.4 1012.8 6.6
24/02:00am S 4 5 - - - - - - - 22.1 1013.1 6.6
24/01:30am SSW 5 7 - - - - - - - 21.9 1013.3 6.6
24/01:00am SW 5 7 - - - - - - - 21.6 1013.2 6.6
24/12:30am SW 6 8 - - - - - - - 21.9 1014.0 6.6
24/12:00am W 8 10 - - - - - - - 21.4 1013.7 6.6
 
Date/Time
EDT
Wind Sea
Height
m
Swell Vis
km
Cloud Weather Temp
°C
Press
MSL
hPa
Rain since
9am
mm
Dir  Spd
kts
Gust
kts
Height
m
Period
s
Dir
23/11:30pm NW 5 8 - - - - - - - 21.9 1012.8 6.6
23/11:00pm NNE 4 7 - - - - - - - 21.9 1013.4 6.6
23/10:30pm NNW 8 13 - - - - - - - 21.8 1013.2 6.6
23/10:00pm NNE 13 18 - - - - - - - 22.7 1012.5 6.6
23/09:57pm NE 14 19 - - - - - - - 22.7 1012.4 6.6
23/09:30pm NE 20 25 - - - - - - - 22.5 1010.8 6.6
23/09:05pm ENE 21 31 - - - - - - - 22.3 1010.5 6.6
23/09:00pm ENE 24 33 - - - - - - Recent precip. 22.4 1010.8 6.6
23/08:40pm NE 31 38 - - - - - - - 23.0 1010.1 6.2
23/08:34pm NE 30 38 - - - - - - - 23.5 1010.3 5.8
23/08:30pm NE 25 33 - - - - - - - 23.6 1010.9 5.6
23/08:22pm NE 14 23 - - - - - - - 24.1 1012.1 4.8
23/08:00pm NE 9 11 - - - - - - - 24.5 1012.4 3.0
23/07:30pm ENE 11 15 - - - - - - - 24.0 1011.7 3.0
23/07:00pm ENE 11 16 - - - - - - - 24.2 1010.3 2.0
23/06:30pm E 10 15 - - - - - - - 25.2 1010.0 0.0
23/06:00pm E 10 15 - - - - - - - 25.7 1009.4 0.0
23/05:30pm E 11 17 - - - - - - - 26.0 1008.4 0.0
23/05:00pm ENE 13 18 - - - - - - - 26.5 1008.7 0.0
23/04:30pm ENE 17 21 - - - - - - - 26.9 1007.8 0.0
23/04:00pm NE 18 21 - - - - - - - 28.7 1008.0 0.0
23/03:30pm NE 19 22 - - - - - - - 27.9 1008.0 0.0
23/03:00pm NE 18 21 - - - - - - - 27.8 1008.2 0.0
23/02:30pm NE 18 21 - - - - - - - 28.6 1008.4 0.0
23/02:00pm NE 17 21 - - - - - - - 28.8 1008.9 0.0
23/01:30pm NE 16 21 - - - - - - - 29.0 1009.2 0.0
23/01:00pm NE 15 19 - - - - - - - 29.1 1009.5 0.0
23/12:30pm NNE 12 18 - - - - - - - 28.5 1009.8 0.0
23/12:00pm NNE 11 15 - - - - - - - 28.3 1010.0 0.0
23/11:30am NNE 9 13 - - - - - - - 28.2 1010.1 0.0
23/11:00am NNE 11 16 - - - - - - - 28.0 1010.1 0.0
23/10:30am N 11 15 - - - - - - - 27.4 1010.0 0.0
23/10:00am N 9 13 - - - - - - - 27.3 1009.9 0.0
23/09:30am N 7 10 - - - - - - - 26.9 1009.6 0.0
23/09:00am N 7 10 - - - - - - - 26.2 1009.6 0.0
23/08:30am N 4 6 - - - - - - - 25.4 1009.7 0.0
23/08:00am N 4 6 - - - - - - - 25.3 1009.6 0.0
23/07:30am N 7 9 - - - - - - - 25.2 1009.3 0.0
23/07:00am N 8 11 - - - - - - - 24.9 1009.0 0.0
23/06:30am N 7 9 - - - - - - - 24.8 1008.7 0.0
23/06:00am N 9 12 - - - - - - - 24.7 1008.4 0.0
23/05:30am N 7 9 - - - - - - - 24.7 1008.3 0.0
23/05:00am N 8 14 - - - - - - - 25.2 1008.1 0.0
23/04:30am N 10 14 - - - - - - - 25.2 1007.9 0.0
23/04:00am N 11 15 - - - - - - - 25.2 1007.7 0.0
23/03:30am NNE 10 14 - - - - - - - 25.2 1007.8 0.0
23/03:00am N 11 15 - - - - - - - 25.3 1007.7 0.0
23/02:30am N 11 15 - - - - - - - 25.2 1007.7 0.0
23/02:00am N 8 11 - - - - - - - 25.1 1008.0 0.0
23/01:30am NNE 10 15 - - - - - - - 25.6 1008.1 0.0
23/01:00am N 8 11 - - - - - - - 25.3 1008.3 0.0
23/12:30am N 10 14 - - - - - - - 24.9 1007.8 0.0
23/12:00am N 8 11 - - - - - - - 24.9 1008.1 0.0
 
Date/Time
EDT
Wind Sea
Height
m
Swell Vis
km
Cloud Weather Temp
°C
Press
MSL
hPa
Rain since
9am
mm
Dir  Spd
kts
Gust
kts
Height
m
Period
s
Dir
22/11:30pm N 8 11 - - - - - - - 25.3 1008.6 0.0
22/11:00pm NNE 6 9 - - - - - - - 25.5 1008.8 0.0
22/10:30pm NE 7 10 - - - - - - - 25.6 1008.6 0.0
22/10:00pm NE 8 11 - - - - - - - 25.5 1008.7 0.0
22/09:30pm NE 9 11 - - - - - - - 25.4 1008.4 0.0
22/09:00pm ENE 10 12 - - - - - - - 25.2 1007.8 0.0
22/08:30pm ENE 9 12 - - - - - - - 25.5 1007.3 0.0
22/08:00pm NE 10 12 - - - - - - - 25.8 1006.9 0.0
22/07:30pm NE 9 10 - - - - - - - 26.0 1006.4 0.0
22/07:00pm NE 10 11 - - - - - - - 26.6 1005.7 0.0
22/06:30pm NE 8 10 - - - - - - - 27.1 1005.4 0.0
22/06:00pm NE 10 11 - - - - - - - 28.0 1004.8 0.0
22/05:30pm NE 10 12 - - - - - - - 28.7 1004.7 0.0
22/05:00pm ENE 8 11 - - - - - - - 30.5 1004.5 0.0
22/04:30pm E 7 9 - - - - - - - 30.4 1004.5 0.0
22/04:00pm E 7 9 - - - - - - - 30.4 1004.6 0.0

Other formats

Comma delimited format used in spreadsheet applications
http://www.bom.gov.au/fwo/IDN60701/IDN60701.94599.axf

JavaScript Object Notation format (JSON) in row-major order
http://www.bom.gov.au/fwo/IDN60701/IDN60701.94599.json

Data quality

Most of these data are generated automatically and are frequently updated. Quality checks on data are not normally performed. It is possible for incorrect values to appear. Refer to information at About Latest Weather Observations and please check the disclaimer before using these data.